sensor_id;sensor_type;location;lat;lon;timestamp;P1;durP1;ratioP1;P2;durP2;ratioP2
77726;SDS011;68312;53.502;10.030;2023-11-21T00:01:15;14.15;;;5.68;;
77726;SDS011;68312;53.502;10.030;2023-11-21T00:03:42;13.20;;;6.03;;
77726;SDS011;68312;53.502;10.030;2023-11-21T00:06:07;21.80;;;6.65;;
77726;SDS011;68312;53.502;10.030;2023-11-21T00:08:36;15.13;;;5.97;;
77726;SDS011;68312;53.502;10.030;2023-11-21T00:11:02;14.30;;;6.03;;
77726;SDS011;68312;53.502;10.030;2023-11-21T00:13:30;13.38;;;5.47;;
77726;SDS011;68312;53.502;10.030;2023-11-21T00:15:57;10.95;;;5.32;;
77726;SDS011;68312;53.502;10.030;2023-11-21T00:18:22;9.38;;;3.80;;
77726;SDS011;68312;53.502;10.030;2023-11-21T00:20:47;11.85;;;4.05;;
77726;SDS011;68312;53.502;10.030;2023-11-21T00:23:13;10.82;;;4.60;;
77726;SDS011;68312;53.502;10.030;2023-11-21T00:25:38;11.57;;;4.47;;
77726;SDS011;68312;53.502;10.030;2023-11-21T00:28:05;12.05;;;4.95;;
77726;SDS011;68312;53.502;10.030;2023-11-21T00:30:30;9.95;;;4.57;;
77726;SDS011;68312;53.502;10.030;2023-11-21T00:32:56;11.38;;;4.95;;
77726;SDS011;68312;53.502;10.030;2023-11-21T00:35:22;9.93;;;4.72;;
77726;SDS011;68312;53.502;10.030;2023-11-21T00:37:47;12.30;;;4.82;;
77726;SDS011;68312;53.502;10.030;2023-11-21T00:40:14;15.93;;;6.43;;
77726;SDS011;68312;53.502;10.030;2023-11-21T00:42:41;15.85;;;5.25;;
77726;SDS011;68312;53.502;10.030;2023-11-21T00:45:07;13.02;;;5.95;;
77726;SDS011;68312;53.502;10.030;2023-11-21T00:47:33;12.27;;;6.22;;
77726;SDS011;68312;53.502;10.030;2023-11-21T00:49:58;14.68;;;5.93;;
77726;SDS011;68312;53.502;10.030;2023-11-21T00:52:24;12.77;;;5.15;;
77726;SDS011;68312;53.502;10.030;2023-11-21T00:54:49;14.38;;;6.32;;
77726;SDS011;68312;53.502;10.030;2023-11-21T00:57:15;13.00;;;6.22;;
77726;SDS011;68312;53.502;10.030;2023-11-21T00:59:40;14.65;;;6.57;;
77726;SDS011;68312;53.502;10.030;2023-11-21T01:02:06;14.60;;;5.75;;
77726;SDS011;68312;53.502;10.030;2023-11-21T01:04:35;12.43;;;5.55;;
77726;SDS011;68312;53.502;10.030;2023-11-21T01:07:00;10.07;;;4.80;;
77726;SDS011;68312;53.502;10.030;2023-11-21T01:09:25;11.05;;;4.75;;
77726;SDS011;68312;53.502;10.030;2023-11-21T01:11:51;13.95;;;6.22;;
77726;SDS011;68312;53.502;10.030;2023-11-21T01:14:17;16.63;;;5.13;;
77726;SDS011;68312;53.502;10.030;2023-11-21T01:16:42;11.90;;;5.95;;
77726;SDS011;68312;53.502;10.030;2023-11-21T01:19:08;15.50;;;5.95;;
77726;SDS011;68312;53.502;10.030;2023-11-21T01:21:34;15.05;;;7.07;;
77726;SDS011;68312;53.502;10.030;2023-11-21T01:23:59;19.30;;;6.22;;
77726;SDS011;68312;53.502;10.030;2023-11-21T01:26:25;14.13;;;6.18;;
77726;SDS011;68312;53.502;10.030;2023-11-21T01:28:50;15.02;;;5.95;;
77726;SDS011;68312;53.502;10.030;2023-11-21T01:31:15;16.65;;;6.95;;
77726;SDS011;68312;53.502;10.030;2023-11-21T01:33:41;14.57;;;5.82;;
77726;SDS011;68312;53.502;10.030;2023-11-21T01:36:06;11.45;;;6.45;;
77726;SDS011;68312;53.502;10.030;2023-11-21T01:38:33;14.48;;;7.03;;
77726;SDS011;68312;53.502;10.030;2023-11-21T01:40:59;12.43;;;6.13;;
77726;SDS011;68312;53.502;10.030;2023-11-21T01:43:26;9.80;;;4.82;;
77726;SDS011;68312;53.502;10.030;2023-11-21T01:45:53;13.50;;;5.68;;
77726;SDS011;68312;53.502;10.030;2023-11-21T01:48:22;14.18;;;5.68;;
77726;SDS011;68312;53.502;10.030;2023-11-21T01:50:48;14.27;;;5.53;;
77726;SDS011;68312;53.502;10.030;2023-11-21T01:53:14;14.05;;;5.75;;
77726;SDS011;68312;53.502;10.030;2023-11-21T01:55:40;10.82;;;4.93;;
77726;SDS011;68312;53.502;10.030;2023-11-21T01:58:07;12.57;;;5.40;;
77726;SDS011;68312;53.502;10.030;2023-11-21T02:00:35;9.60;;;5.35;;
77726;SDS011;68312;53.502;10.030;2023-11-21T02:03:00;11.23;;;4.88;;
77726;SDS011;68312;53.502;10.030;2023-11-21T02:05:26;13.48;;;5.45;;
77726;SDS011;68312;53.502;10.030;2023-11-21T02:07:52;12.27;;;5.15;;
77726;SDS011;68312;53.502;10.030;2023-11-21T02:10:17;10.35;;;4.80;;
77726;SDS011;68312;53.502;10.030;2023-11-21T02:12:48;11.00;;;5.15;;
77726;SDS011;68312;53.502;10.030;2023-11-21T02:15:17;12.07;;;4.82;;
77726;SDS011;68312;53.502;10.030;2023-11-21T02:17:46;13.00;;;4.85;;
77726;SDS011;68312;53.502;10.030;2023-11-21T02:20:16;8.60;;;4.32;;
77726;SDS011;68312;53.502;10.030;2023-11-21T02:22:43;8.50;;;4.35;;
77726;SDS011;68312;53.502;10.030;2023-11-21T02:25:25;10.68;;;4.60;;
77726;SDS011;68312;53.502;10.030;2023-11-21T02:27:54;9.98;;;4.28;;
77726;SDS011;68312;53.502;10.030;2023-11-21T02:30:24;8.82;;;3.88;;
77726;SDS011;68312;53.502;10.030;2023-11-21T02:32:50;9.18;;;4.32;;
77726;SDS011;68312;53.502;10.030;2023-11-21T02:35:19;8.23;;;3.85;;
77726;SDS011;68312;53.502;10.030;2023-11-21T02:37:50;8.52;;;4.25;;
77726;SDS011;68312;53.502;10.030;2023-11-21T02:40:17;8.57;;;3.80;;
77726;SDS011;68312;53.502;10.030;2023-11-21T02:42:50;7.77;;;3.77;;
77726;SDS011;68312;53.502;10.030;2023-11-21T02:45:19;9.52;;;4.57;;
77726;SDS011;68312;53.502;10.030;2023-11-21T02:47:46;10.70;;;4.80;;
77726;SDS011;68312;53.502;10.030;2023-11-21T02:50:13;7.50;;;2.60;;
77726;SDS011;68312;53.502;10.030;2023-11-21T02:52:39;8.43;;;3.97;;
77726;SDS011;68312;53.502;10.030;2023-11-21T02:55:07;9.30;;;4.20;;
77726;SDS011;68312;53.502;10.030;2023-11-21T02:57:33;8.23;;;3.95;;
77726;SDS011;68312;53.502;10.030;2023-11-21T02:59:59;7.95;;;3.80;;
77726;SDS011;68312;53.502;10.030;2023-11-21T03:02:25;14.93;;;5.18;;
77726;SDS011;68312;53.502;10.030;2023-11-21T03:04:51;8.63;;;3.72;;
77726;SDS011;68312;53.502;10.030;2023-11-21T03:07:16;9.23;;;4.03;;
77726;SDS011;68312;53.502;10.030;2023-11-21T03:09:44;10.82;;;4.65;;
77726;SDS011;68312;53.502;10.030;2023-11-21T03:12:10;9.77;;;4.57;;
77726;SDS011;68312;53.502;10.030;2023-11-21T03:14:37;9.50;;;4.20;;
77726;SDS011;68312;53.502;10.030;2023-11-21T03:17:03;8.40;;;4.30;;
77726;SDS011;68312;53.502;10.030;2023-11-21T03:19:29;6.63;;;3.70;;
77726;SDS011;68312;53.502;10.030;2023-11-21T03:21:55;8.38;;;3.83;;
77726;SDS011;68312;53.502;10.030;2023-11-21T03:24:21;9.27;;;3.83;;
77726;SDS011;68312;53.502;10.030;2023-11-21T03:26:47;7.22;;;3.60;;
77726;SDS011;68312;53.502;10.030;2023-11-21T03:29:13;9.27;;;4.55;;
77726;SDS011;68312;53.502;10.030;2023-11-21T03:31:39;7.05;;;3.75;;
77726;SDS011;68312;53.502;10.030;2023-11-21T03:34:05;8.90;;;4.00;;
77726;SDS011;68312;53.502;10.030;2023-11-21T03:36:31;7.50;;;3.85;;
77726;SDS011;68312;53.502;10.030;2023-11-21T03:38:57;7.55;;;4.15;;
77726;SDS011;68312;53.502;10.030;2023-11-21T03:41:22;11.48;;;4.30;;
77726;SDS011;68312;53.502;10.030;2023-11-21T03:43:47;7.95;;;3.67;;
77726;SDS011;68312;53.502;10.030;2023-11-21T03:46:13;8.82;;;4.20;;
77726;SDS011;68312;53.502;10.030;2023-11-21T03:48:39;11.18;;;4.90;;
77726;SDS011;68312;53.502;10.030;2023-11-21T03:51:04;9.63;;;4.13;;
77726;SDS011;68312;53.502;10.030;2023-11-21T03:53:30;10.45;;;4.63;;
77726;SDS011;68312;53.502;10.030;2023-11-21T03:55:55;10.52;;;4.80;;
77726;SDS011;68312;53.502;10.030;2023-11-21T03:58:21;6.68;;;3.97;;
77726;SDS011;68312;53.502;10.030;2023-11-21T04:00:47;6.75;;;3.70;;
77726;SDS011;68312;53.502;10.030;2023-11-21T04:03:14;8.57;;;4.18;;
77726;SDS011;68312;53.502;10.030;2023-11-21T04:05:40;9.18;;;4.25;;
77726;SDS011;68312;53.502;10.030;2023-11-21T04:08:06;8.00;;;4.40;;
77726;SDS011;68312;53.502;10.030;2023-11-21T04:10:32;9.57;;;5.13;;
77726;SDS011;68312;53.502;10.030;2023-11-21T04:12:57;12.32;;;5.35;;
77726;SDS011;68312;53.502;10.030;2023-11-21T04:15:23;10.05;;;4.47;;
77726;SDS011;68312;53.502;10.030;2023-11-21T04:17:48;12.75;;;5.72;;
77726;SDS011;68312;53.502;10.030;2023-11-21T04:20:14;9.05;;;4.75;;
77726;SDS011;68312;53.502;10.030;2023-11-21T04:22:39;11.07;;;4.97;;
77726;SDS011;68312;53.502;10.030;2023-11-21T04:25:08;11.68;;;4.50;;
77726;SDS011;68312;53.502;10.030;2023-11-21T04:27:35;11.55;;;5.20;;
77726;SDS011;68312;53.502;10.030;2023-11-21T04:30:01;11.05;;;4.95;;
77726;SDS011;68312;53.502;10.030;2023-11-21T04:32:26;8.52;;;4.50;;
77726;SDS011;68312;53.502;10.030;2023-11-21T04:34:52;8.77;;;4.35;;
77726;SDS011;68312;53.502;10.030;2023-11-21T04:37:17;10.35;;;5.05;;
77726;SDS011;68312;53.502;10.030;2023-11-21T04:39:42;10.35;;;4.95;;
77726;SDS011;68312;53.502;10.030;2023-11-21T04:42:08;9.32;;;4.97;;
77726;SDS011;68312;53.502;10.030;2023-11-21T04:44:33;9.15;;;4.40;;
77726;SDS011;68312;53.502;10.030;2023-11-21T04:46:59;7.47;;;4.40;;
77726;SDS011;68312;53.502;10.030;2023-11-21T04:49:24;9.25;;;4.50;;
77726;SDS011;68312;53.502;10.030;2023-11-21T04:51:49;8.77;;;4.80;;
77726;SDS011;68312;53.502;10.030;2023-11-21T04:54:15;8.20;;;4.35;;
77726;SDS011;68312;53.502;10.030;2023-11-21T04:56:40;8.52;;;3.67;;
77726;SDS011;68312;53.502;10.030;2023-11-21T04:59:06;10.55;;;4.70;;
77726;SDS011;68312;53.502;10.030;2023-11-21T05:01:31;8.32;;;4.20;;
77726;SDS011;68312;53.502;10.030;2023-11-21T05:03:58;9.30;;;4.05;;
77726;SDS011;68312;53.502;10.030;2023-11-21T05:06:23;7.82;;;3.72;;
77726;SDS011;68312;53.502;10.030;2023-11-21T05:08:49;12.43;;;5.18;;
77726;SDS011;68312;53.502;10.030;2023-11-21T05:11:27;7.88;;;3.90;;
77726;SDS011;68312;53.502;10.030;2023-11-21T05:13:54;9.15;;;4.82;;
77726;SDS011;68312;53.502;10.030;2023-11-21T05:16:21;9.05;;;4.22;;
77726;SDS011;68312;53.502;10.030;2023-11-21T05:18:47;12.88;;;5.28;;
77726;SDS011;68312;53.502;10.030;2023-11-21T05:21:13;9.15;;;4.72;;
77726;SDS011;68312;53.502;10.030;2023-11-21T05:23:38;9.80;;;4.32;;
77726;SDS011;68312;53.502;10.030;2023-11-21T05:26:05;12.00;;;5.43;;
77726;SDS011;68312;53.502;10.030;2023-11-21T05:28:30;10.48;;;4.93;;
77726;SDS011;68312;53.502;10.030;2023-11-21T05:30:55;10.18;;;4.40;;
77726;SDS011;68312;53.502;10.030;2023-11-21T05:33:21;10.77;;;4.80;;
77726;SDS011;68312;53.502;10.030;2023-11-21T05:35:46;15.27;;;5.40;;
77726;SDS011;68312;53.502;10.030;2023-11-21T05:38:13;8.43;;;4.30;;
77726;SDS011;68312;53.502;10.030;2023-11-21T05:40:39;13.82;;;5.13;;
77726;SDS011;68312;53.502;10.030;2023-11-21T05:43:05;12.18;;;5.63;;
77726;SDS011;68312;53.502;10.030;2023-11-21T05:45:32;10.20;;;5.38;;
77726;SDS011;68312;53.502;10.030;2023-11-21T05:47:58;12.05;;;4.85;;
77726;SDS011;68312;53.502;10.030;2023-11-21T05:50:24;11.68;;;5.70;;
77726;SDS011;68312;53.502;10.030;2023-11-21T05:52:49;11.50;;;5.03;;
77726;SDS011;68312;53.502;10.030;2023-11-21T05:55:15;12.23;;;5.15;;
77726;SDS011;68312;53.502;10.030;2023-11-21T05:57:41;9.65;;;4.45;;
77726;SDS011;68312;53.502;10.030;2023-11-21T06:00:09;10.98;;;5.40;;
77726;SDS011;68312;53.502;10.030;2023-11-21T06:02:43;10.32;;;5.10;;
77726;SDS011;68312;53.502;10.030;2023-11-21T06:05:09;11.45;;;4.63;;
77726;SDS011;68312;53.502;10.030;2023-11-21T06:07:35;9.07;;;4.90;;
77726;SDS011;68312;53.502;10.030;2023-11-21T06:10:02;14.77;;;5.60;;
77726;SDS011;68312;53.502;10.030;2023-11-21T06:12:32;8.40;;;4.70;;
77726;SDS011;68312;53.502;10.030;2023-11-21T06:15:01;11.88;;;4.72;;
77726;SDS011;68312;53.502;10.030;2023-11-21T06:17:33;11.02;;;4.75;;
77726;SDS011;68312;53.502;10.030;2023-11-21T06:20:01;10.82;;;4.90;;
77726;SDS011;68312;53.502;10.030;2023-11-21T06:22:33;9.98;;;4.90;;
77726;SDS011;68312;53.502;10.030;2023-11-21T06:25:03;10.95;;;5.10;;
77726;SDS011;68312;53.502;10.030;2023-11-21T06:27:31;9.90;;;4.90;;
77726;SDS011;68312;53.502;10.030;2023-11-21T06:29:58;8.85;;;4.32;;
77726;SDS011;68312;53.502;10.030;2023-11-21T06:32:23;11.23;;;5.13;;
77726;SDS011;68312;53.502;10.030;2023-11-21T06:34:48;10.27;;;4.18;;
77726;SDS011;68312;53.502;10.030;2023-11-21T06:37:14;11.15;;;5.07;;
77726;SDS011;68312;53.502;10.030;2023-11-21T06:39:40;11.80;;;5.68;;
77726;SDS011;68312;53.502;10.030;2023-11-21T06:42:06;10.48;;;4.55;;
77726;SDS011;68312;53.502;10.030;2023-11-21T06:44:32;10.48;;;5.43;;
77726;SDS011;68312;53.502;10.030;2023-11-21T06:46:58;11.13;;;5.35;;
77726;SDS011;68312;53.502;10.030;2023-11-21T06:49:24;9.65;;;4.65;;
77726;SDS011;68312;53.502;10.030;2023-11-21T06:51:49;9.70;;;5.13;;
77726;SDS011;68312;53.502;10.030;2023-11-21T06:54:15;8.82;;;4.80;;
77726;SDS011;68312;53.502;10.030;2023-11-21T06:56:40;11.85;;;5.38;;
77726;SDS011;68312;53.502;10.030;2023-11-21T06:59:06;10.95;;;4.93;;
77726;SDS011;68312;53.502;10.030;2023-11-21T07:01:31;10.80;;;5.15;;
77726;SDS011;68312;53.502;10.030;2023-11-21T07:04:03;10.50;;;5.30;;
77726;SDS011;68312;53.502;10.030;2023-11-21T07:06:31;9.57;;;5.05;;
77726;SDS011;68312;53.502;10.030;2023-11-21T07:08:56;9.43;;;4.95;;
77726;SDS011;68312;53.502;10.030;2023-11-21T07:11:22;10.18;;;5.35;;
77726;SDS011;68312;53.502;10.030;2023-11-21T07:13:47;12.55;;;5.88;;
77726;SDS011;68312;53.502;10.030;2023-11-21T07:16:13;12.50;;;5.78;;
77726;SDS011;68312;53.502;10.030;2023-11-21T07:18:40;15.65;;;5.93;;
77726;SDS011;68312;53.502;10.030;2023-11-21T07:21:05;9.32;;;5.50;;
77726;SDS011;68312;53.502;10.030;2023-11-21T07:23:31;12.75;;;5.88;;
77726;SDS011;68312;53.502;10.030;2023-11-21T07:25:56;12.98;;;5.95;;
77726;SDS011;68312;53.502;10.030;2023-11-21T07:28:22;11.95;;;5.70;;
77726;SDS011;68312;53.502;10.030;2023-11-21T07:30:50;14.15;;;6.18;;
77726;SDS011;68312;53.502;10.030;2023-11-21T07:33:16;13.43;;;6.43;;
77726;SDS011;68312;53.502;10.030;2023-11-21T07:35:42;10.95;;;6.35;;
77726;SDS011;68312;53.502;10.030;2023-11-21T07:38:07;13.13;;;5.85;;
77726;SDS011;68312;53.502;10.030;2023-11-21T07:40:33;13.35;;;6.30;;
77726;SDS011;68312;53.502;10.030;2023-11-21T07:42:59;12.75;;;5.93;;
77726;SDS011;68312;53.502;10.030;2023-11-21T07:45:25;9.63;;;5.40;;
77726;SDS011;68312;53.502;10.030;2023-11-21T07:47:52;16.88;;;5.82;;
77726;SDS011;68312;53.502;10.030;2023-11-21T07:50:21;12.57;;;5.43;;
77726;SDS011;68312;53.502;10.030;2023-11-21T07:52:48;12.82;;;5.53;;
77726;SDS011;68312;53.502;10.030;2023-11-21T07:55:14;9.52;;;4.82;;
77726;SDS011;68312;53.502;10.030;2023-11-21T07:57:40;11.95;;;5.53;;
77726;SDS011;68312;53.502;10.030;2023-11-21T08:00:06;9.48;;;4.88;;
77726;SDS011;68312;53.502;10.030;2023-11-21T08:02:34;12.68;;;5.10;;
77726;SDS011;68312;53.502;10.030;2023-11-21T08:05:00;11.13;;;5.50;;
77726;SDS011;68312;53.502;10.030;2023-11-21T08:07:25;12.38;;;5.25;;
77726;SDS011;68312;53.502;10.030;2023-11-21T08:09:51;11.68;;;5.63;;
77726;SDS011;68312;53.502;10.030;2023-11-21T08:12:17;9.90;;;4.57;;
77726;SDS011;68312;53.502;10.030;2023-11-21T08:14:45;11.73;;;4.68;;
77726;SDS011;68312;53.502;10.030;2023-11-21T08:17:10;8.50;;;4.57;;
77726;SDS011;68312;53.502;10.030;2023-11-21T08:19:36;12.75;;;4.97;;
77726;SDS011;68312;53.502;10.030;2023-11-21T08:22:02;13.90;;;5.47;;
77726;SDS011;68312;53.502;10.030;2023-11-21T08:24:29;10.15;;;4.55;;
77726;SDS011;68312;53.502;10.030;2023-11-21T08:26:54;10.57;;;4.22;;
77726;SDS011;68312;53.502;10.030;2023-11-21T08:29:20;10.93;;;4.25;;
77726;SDS011;68312;53.502;10.030;2023-11-21T08:31:45;8.95;;;3.65;;
77726;SDS011;68312;53.502;10.030;2023-11-21T08:34:12;9.80;;;4.05;;
77726;SDS011;68312;53.502;10.030;2023-11-21T08:36:42;9.68;;;3.95;;
77726;SDS011;68312;53.502;10.030;2023-11-21T08:39:08;8.70;;;4.07;;
77726;SDS011;68312;53.502;10.030;2023-11-21T08:41:34;5.22;;;3.28;;
77726;SDS011;68312;53.502;10.030;2023-11-21T08:44:01;6.68;;;3.63;;
77726;SDS011;68312;53.502;10.030;2023-11-21T08:46:27;8.85;;;4.20;;
77726;SDS011;68312;53.502;10.030;2023-11-21T08:48:52;8.00;;;4.38;;
77726;SDS011;68312;53.502;10.030;2023-11-21T08:51:18;9.80;;;3.70;;
77726;SDS011;68312;53.502;10.030;2023-11-21T08:53:43;8.25;;;4.00;;
77726;SDS011;68312;53.502;10.030;2023-11-21T08:56:12;7.28;;;4.35;;
77726;SDS011;68312;53.502;10.030;2023-11-21T08:58:41;9.48;;;3.65;;
77726;SDS011;68312;53.502;10.030;2023-11-21T09:01:07;6.75;;;3.60;;
77726;SDS011;68312;53.502;10.030;2023-11-21T09:03:44;9.13;;;4.30;;
77726;SDS011;68312;53.502;10.030;2023-11-21T09:06:11;5.97;;;3.42;;
77726;SDS011;68312;53.502;10.030;2023-11-21T09:08:37;8.88;;;4.68;;
77726;SDS011;68312;53.502;10.030;2023-11-21T09:11:02;8.70;;;4.18;;
77726;SDS011;68312;53.502;10.030;2023-11-21T09:13:28;6.43;;;3.40;;
77726;SDS011;68312;53.502;10.030;2023-11-21T09:15:54;8.60;;;3.50;;
77726;SDS011;68312;53.502;10.030;2023-11-21T09:18:20;10.20;;;3.25;;
77726;SDS011;68312;53.502;10.030;2023-11-21T09:20:45;5.65;;;2.97;;
77726;SDS011;68312;53.502;10.030;2023-11-21T09:23:11;5.43;;;2.92;;
77726;SDS011;68312;53.502;10.030;2023-11-21T09:25:36;6.88;;;3.17;;
77726;SDS011;68312;53.502;10.030;2023-11-21T09:28:03;5.50;;;3.10;;
77726;SDS011;68312;53.502;10.030;2023-11-21T09:30:32;5.20;;;3.20;;
77726;SDS011;68312;53.502;10.030;2023-11-21T09:33:04;7.40;;;3.15;;
77726;SDS011;68312;53.502;10.030;2023-11-21T09:35:32;5.68;;;2.63;;
77726;SDS011;68312;53.502;10.030;2023-11-21T09:37:57;5.55;;;2.72;;
77726;SDS011;68312;53.502;10.030;2023-11-21T09:40:23;8.63;;;3.42;;
77726;SDS011;68312;53.502;10.030;2023-11-21T09:42:52;4.65;;;2.72;;
77726;SDS011;68312;53.502;10.030;2023-11-21T09:48:00;6.15;;;2.60;;
77726;SDS011;68312;53.502;10.030;2023-11-21T09:50:26;6.25;;;2.63;;
77726;SDS011;68312;53.502;10.030;2023-11-21T09:55:36;5.40;;;3.03;;
77726;SDS011;68312;53.502;10.030;2023-11-21T09:58:05;5.53;;;3.08;;
77726;SDS011;68312;53.502;10.030;2023-11-21T10:00:36;5.70;;;2.85;;
77726;SDS011;68312;53.502;10.030;2023-11-21T10:03:08;6.82;;;2.88;;
77726;SDS011;68312;53.502;10.030;2023-11-21T10:05:35;5.60;;;3.00;;
77726;SDS011;68312;53.502;10.030;2023-11-21T10:08:01;6.63;;;3.10;;
77726;SDS011;68312;53.502;10.030;2023-11-21T10:10:37;5.72;;;2.25;;
77726;SDS011;68312;53.502;10.030;2023-11-21T10:13:09;5.80;;;2.83;;
77726;SDS011;68312;53.502;10.030;2023-11-21T10:15:41;7.32;;;2.70;;
77726;SDS011;68312;53.502;10.030;2023-11-21T10:18:13;3.92;;;2.50;;
77726;SDS011;68312;53.502;10.030;2023-11-21T10:20:40;7.30;;;2.67;;
77726;SDS011;68312;53.502;10.030;2023-11-21T10:23:07;4.70;;;2.53;;
77726;SDS011;68312;53.502;10.030;2023-11-21T10:25:36;5.25;;;3.05;;
77726;SDS011;68312;53.502;10.030;2023-11-21T10:28:02;5.03;;;2.97;;
77726;SDS011;68312;53.502;10.030;2023-11-21T10:30:35;4.97;;;2.80;;
77726;SDS011;68312;53.502;10.030;2023-11-21T10:33:04;8.27;;;3.25;;
77726;SDS011;68312;53.502;10.030;2023-11-21T10:35:46;6.68;;;3.30;;
77726;SDS011;68312;53.502;10.030;2023-11-21T10:38:15;5.72;;;2.60;;
77726;SDS011;68312;53.502;10.030;2023-11-21T10:40:47;6.00;;;2.88;;
77726;SDS011;68312;53.502;10.030;2023-11-21T10:43:14;6.88;;;3.30;;
77726;SDS011;68312;53.502;10.030;2023-11-21T10:45:40;6.72;;;2.70;;
77726;SDS011;68312;53.502;10.030;2023-11-21T10:48:07;4.97;;;2.80;;
77726;SDS011;68312;53.502;10.030;2023-11-21T10:50:36;4.63;;;2.70;;
77726;SDS011;68312;53.502;10.030;2023-11-21T10:53:03;7.57;;;2.80;;
77726;SDS011;68312;53.502;10.030;2023-11-21T10:55:30;8.10;;;3.03;;
77726;SDS011;68312;53.502;10.030;2023-11-21T10:58:01;7.13;;;3.22;;
77726;SDS011;68312;53.502;10.030;2023-11-21T11:00:30;5.47;;;2.60;;
77726;SDS011;68312;53.502;10.030;2023-11-21T11:02:57;6.03;;;2.60;;
77726;SDS011;68312;53.502;10.030;2023-11-21T11:05:24;6.35;;;2.15;;
77726;SDS011;68312;53.502;10.030;2023-11-21T11:07:58;4.95;;;2.40;;
77726;SDS011;68312;53.502;10.030;2023-11-21T11:10:26;6.43;;;2.80;;
77726;SDS011;68312;53.502;10.030;2023-11-21T11:12:55;4.63;;;2.45;;
77726;SDS011;68312;53.502;10.030;2023-11-21T11:15:25;7.20;;;2.63;;
77726;SDS011;68312;53.502;10.030;2023-11-21T11:17:52;3.92;;;2.25;;
77726;SDS011;68312;53.502;10.030;2023-11-21T11:20:22;4.93;;;2.35;;
77726;SDS011;68312;53.502;10.030;2023-11-21T11:22:59;5.03;;;2.50;;
77726;SDS011;68312;53.502;10.030;2023-11-21T11:32:13;4.90;;;2.10;;
77726;SDS011;68312;53.502;10.030;2023-11-21T11:35:04;6.00;;;3.03;;
77726;SDS011;68312;53.502;10.030;2023-11-21T11:37:41;4.70;;;2.75;;
77726;SDS011;68312;53.502;10.030;2023-11-21T11:40:07;5.65;;;2.53;;
77726;SDS011;68312;53.502;10.030;2023-11-21T11:42:35;4.22;;;2.50;;
77726;SDS011;68312;53.502;10.030;2023-11-21T11:45:01;4.05;;;2.10;;
77726;SDS011;68312;53.502;10.030;2023-11-21T11:47:30;6.38;;;2.80;;
77726;SDS011;68312;53.502;10.030;2023-11-21T11:52:50;8.52;;;2.58;;
77726;SDS011;68312;53.502;10.030;2023-11-21T11:55:18;4.13;;;1.85;;
77726;SDS011;68312;53.502;10.030;2023-11-21T11:57:49;6.65;;;2.78;;
77726;SDS011;68312;53.502;10.030;2023-11-21T12:00:22;4.43;;;2.30;;
77726;SDS011;68312;53.502;10.030;2023-11-21T12:03:02;5.70;;;2.47;;
77726;SDS011;68312;53.502;10.030;2023-11-21T12:05:31;4.93;;;2.35;;
77726;SDS011;68312;53.502;10.030;2023-11-21T12:11:33;5.80;;;2.92;;
77726;SDS011;68312;53.502;10.030;2023-11-21T12:14:00;5.20;;;2.33;;
77726;SDS011;68312;53.502;10.030;2023-11-21T12:16:27;4.65;;;2.53;;
77726;SDS011;68312;53.502;10.030;2023-11-21T12:18:52;5.65;;;2.47;;
77726;SDS011;68312;53.502;10.030;2023-11-21T12:21:19;4.07;;;2.40;;
77726;SDS011;68312;53.502;10.030;2023-11-21T12:23:46;8.40;;;3.20;;
77726;SDS011;68312;53.502;10.030;2023-11-21T12:26:12;7.93;;;3.35;;
77726;SDS011;68312;53.502;10.030;2023-11-21T12:28:38;5.50;;;2.90;;
77726;SDS011;68312;53.502;10.030;2023-11-21T12:31:04;3.40;;;2.13;;
77726;SDS011;68312;53.502;10.030;2023-11-21T12:33:32;8.02;;;2.55;;
77726;SDS011;68312;53.502;10.030;2023-11-21T12:36:00;4.88;;;2.80;;
77726;SDS011;68312;53.502;10.030;2023-11-21T12:38:33;6.50;;;3.03;;
77726;SDS011;68312;53.502;10.030;2023-11-21T12:41:00;7.05;;;2.60;;
77726;SDS011;68312;53.502;10.030;2023-11-21T12:43:25;5.32;;;2.83;;
77726;SDS011;68312;53.502;10.030;2023-11-21T12:45:51;9.80;;;3.40;;
77726;SDS011;68312;53.502;10.030;2023-11-21T12:48:38;6.82;;;2.50;;
77726;SDS011;68312;53.502;10.030;2023-11-21T12:51:11;7.32;;;2.80;;
77726;SDS011;68312;53.502;10.030;2023-11-21T12:53:39;4.13;;;2.30;;
77726;SDS011;68312;53.502;10.030;2023-11-21T12:56:14;4.95;;;2.15;;
77726;SDS011;68312;53.502;10.030;2023-11-21T12:58:44;5.18;;;2.25;;
77726;SDS011;68312;53.502;10.030;2023-11-21T13:01:15;4.75;;;2.58;;
77726;SDS011;68312;53.502;10.030;2023-11-21T13:03:45;4.93;;;2.53;;
77726;SDS011;68312;53.502;10.030;2023-11-21T13:06:13;5.90;;;2.65;;
77726;SDS011;68312;53.502;10.030;2023-11-21T13:08:44;5.07;;;2.60;;
77726;SDS011;68312;53.502;10.030;2023-11-21T13:11:10;5.28;;;2.78;;
77726;SDS011;68312;53.502;10.030;2023-11-21T13:17:19;4.75;;;2.58;;
77726;SDS011;68312;53.502;10.030;2023-11-21T13:19:47;5.05;;;2.60;;
77726;SDS011;68312;53.502;10.030;2023-11-21T13:22:13;5.95;;;2.15;;
77726;SDS011;68312;53.502;10.030;2023-11-21T13:24:38;3.45;;;2.45;;
77726;SDS011;68312;53.502;10.030;2023-11-21T13:27:03;4.22;;;2.05;;
77726;SDS011;68312;53.502;10.030;2023-11-21T13:29:29;4.65;;;2.28;;
77726;SDS011;68312;53.502;10.030;2023-11-21T13:31:54;4.82;;;2.63;;
77726;SDS011;68312;53.502;10.030;2023-11-21T13:34:20;5.10;;;2.72;;
77726;SDS011;68312;53.502;10.030;2023-11-21T13:36:47;5.20;;;2.10;;
77726;SDS011;68312;53.502;10.030;2023-11-21T13:39:13;3.85;;;2.28;;
77726;SDS011;68312;53.502;10.030;2023-11-21T13:41:40;6.15;;;2.85;;
77726;SDS011;68312;53.502;10.030;2023-11-21T13:47:46;7.07;;;2.72;;
77726;SDS011;68312;53.502;10.030;2023-11-21T13:50:11;5.78;;;2.40;;
77726;SDS011;68312;53.502;10.030;2023-11-21T13:52:42;4.90;;;3.00;;
77726;SDS011;68312;53.502;10.030;2023-11-21T13:55:10;4.38;;;2.42;;
77726;SDS011;68312;53.502;10.030;2023-11-21T13:57:40;6.82;;;2.75;;
77726;SDS011;68312;53.502;10.030;2023-11-21T14:00:08;6.15;;;2.83;;
77726;SDS011;68312;53.502;10.030;2023-11-21T14:02:51;6.15;;;2.58;;
77726;SDS011;68312;53.502;10.030;2023-11-21T14:05:16;7.22;;;2.42;;
77726;SDS011;68312;53.502;10.030;2023-11-21T14:07:48;5.50;;;2.50;;
77726;SDS011;68312;53.502;10.030;2023-11-21T14:10:14;5.60;;;2.67;;
77726;SDS011;68312;53.502;10.030;2023-11-21T14:12:41;4.25;;;2.10;;
77726;SDS011;68312;53.502;10.030;2023-11-21T14:18:48;5.40;;;2.75;;
77726;SDS011;68312;53.502;10.030;2023-11-21T14:21:28;3.97;;;2.13;;
77726;SDS011;68312;53.502;10.030;2023-11-21T14:23:54;4.78;;;2.05;;
77726;SDS011;68312;53.502;10.030;2023-11-21T14:26:20;3.55;;;2.15;;
77726;SDS011;68312;53.502;10.030;2023-11-21T14:28:46;5.95;;;2.63;;
77726;SDS011;68312;53.502;10.030;2023-11-21T14:31:14;8.65;;;2.85;;
77726;SDS011;68312;53.502;10.030;2023-11-21T14:33:42;7.65;;;2.58;;
77726;SDS011;68312;53.502;10.030;2023-11-21T14:36:09;11.75;;;2.30;;
77726;SDS011;68312;53.502;10.030;2023-11-21T14:38:35;7.20;;;3.35;;
77726;SDS011;68312;53.502;10.030;2023-11-21T14:41:05;4.15;;;2.10;;
77726;SDS011;68312;53.502;10.030;2023-11-21T14:43:33;3.83;;;2.20;;
77726;SDS011;68312;53.502;10.030;2023-11-21T14:46:00;4.07;;;2.28;;
77726;SDS011;68312;53.502;10.030;2023-11-21T14:48:28;6.32;;;2.83;;
77726;SDS011;68312;53.502;10.030;2023-11-21T14:51:07;4.35;;;2.50;;
77726;SDS011;68312;53.502;10.030;2023-11-21T14:53:40;5.65;;;2.35;;
77726;SDS011;68312;53.502;10.030;2023-11-21T14:56:18;4.53;;;2.20;;
77726;SDS011;68312;53.502;10.030;2023-11-21T14:58:52;3.63;;;2.13;;
77726;SDS011;68312;53.502;10.030;2023-11-21T15:01:19;7.05;;;2.30;;